createdAt,value
2023-05-09T00:00:13.764Z,24.52
2023-05-09T00:01:13.817Z,24.52
2023-05-09T00:02:13.901Z,24.52
2023-05-09T00:03:13.953Z,24.52
2023-05-09T00:04:14.004Z,24.52
2023-05-09T00:05:14.200Z,24.54
2023-05-09T00:06:14.198Z,24.51
2023-05-09T00:07:14.120Z,24.52
2023-05-09T00:08:14.169Z,24.51
2023-05-09T00:09:14.216Z,24.51
2023-05-09T00:10:14.287Z,24.50
2023-05-09T00:11:14.332Z,24.51
2023-05-09T00:12:14.371Z,24.50
2023-05-09T00:13:14.449Z,24.51
2023-05-09T00:14:14.442Z,24.51
2023-05-09T00:15:14.674Z,24.50
2023-05-09T00:16:14.498Z,24.51
2023-05-09T00:17:14.540Z,24.51
2023-05-09T00:18:14.490Z,24.51
2023-05-09T00:19:14.534Z,24.51
2023-05-09T00:20:14.535Z,24.51
2023-05-09T00:21:14.564Z,24.51
2023-05-09T00:22:14.663Z,24.48
2023-05-09T00:23:14.568Z,24.52
2023-05-09T00:24:14.587Z,24.51
2023-05-09T00:25:14.839Z,24.48
2023-05-09T00:26:14.603Z,24.50
2023-05-09T00:27:14.639Z,24.48
2023-05-09T00:28:14.651Z,24.48
2023-05-09T00:29:14.683Z,24.51
2023-05-09T00:30:14.676Z,24.48
2023-05-09T00:31:14.701Z,24.48
2023-05-09T00:32:14.812Z,24.50
2023-05-09T00:33:14.752Z,24.50
2023-05-09T00:34:14.751Z,24.50
2023-05-09T00:35:15.028Z,24.50
2023-05-09T00:36:14.791Z,24.47
2023-05-09T00:37:14.818Z,24.48
2023-05-09T00:38:14.944Z,24.47
2023-05-09T00:39:14.901Z,24.47
2023-05-09T00:40:14.957Z,24.48
2023-05-09T00:41:15.000Z,24.50
2023-05-09T00:42:15.071Z,24.50
2023-05-09T00:43:15.099Z,24.50
2023-05-09T00:44:15.144Z,24.47
2023-05-09T00:45:15.318Z,24.48
2023-05-09T00:46:15.273Z,24.48
2023-05-09T00:47:15.326Z,24.46
2023-05-09T00:48:15.353Z,24.48
2023-05-09T00:49:15.412Z,24.46
2023-05-09T00:50:15.394Z,24.48
2023-05-09T00:51:15.403Z,24.48
2023-05-09T00:52:15.423Z,24.47
2023-05-09T00:53:15.450Z,24.47
2023-05-09T00:54:15.556Z,24.48
2023-05-09T00:55:15.634Z,24.47
2023-05-09T00:56:15.472Z,24.46
2023-05-09T00:57:15.501Z,24.48
2023-05-09T00:58:15.541Z,24.47
2023-05-09T00:59:17.485Z,24.48
2023-05-09T01:00:15.548Z,24.48
2023-05-09T01:01:15.681Z,24.47
2023-05-09T01:02:15.637Z,24.46
2023-05-09T01:03:15.691Z,24.46
2023-05-09T01:04:15.612Z,24.46
2023-05-09T01:05:15.941Z,24.48
2023-05-09T01:06:15.620Z,24.44
2023-05-09T01:07:15.651Z,24.47
2023-05-09T01:08:15.663Z,24.47
2023-05-09T01:09:15.725Z,24.47
2023-05-09T01:10:15.873Z,24.48
2023-05-09T01:11:15.843Z,24.44
2023-05-09T01:12:15.904Z,24.48
2023-05-09T01:13:15.955Z,24.47
2023-05-09T01:14:15.865Z,24.47
2023-05-09T01:15:16.036Z,24.47
2023-05-09T01:16:15.916Z,24.44
2023-05-09T01:17:15.884Z,24.47
2023-05-09T01:18:15.907Z,24.46
2023-05-09T01:19:15.922Z,24.46
2023-05-09T01:20:15.937Z,24.44
2023-05-09T01:21:15.929Z,24.47
2023-05-09T01:22:15.975Z,24.46
2023-05-09T01:23:15.968Z,24.44
2023-05-09T01:24:15.982Z,24.47
2023-05-09T01:25:16.182Z,24.46
2023-05-09T01:26:16.112Z,24.44
2023-05-09T01:27:16.034Z,24.46
2023-05-09T01:28:16.030Z,24.44
2023-05-09T01:29:16.043Z,24.44
2023-05-09T01:30:16.045Z,24.44
2023-05-09T01:31:16.089Z,24.44
2023-05-09T01:32:16.133Z,24.44
2023-05-09T01:33:16.176Z,24.47
2023-05-09T01:34:16.249Z,24.44
2023-05-09T01:35:16.508Z,24.44
2023-05-09T01:36:16.372Z,24.41
2023-05-09T01:37:16.435Z,24.44
2023-05-09T01:38:16.482Z,24.44
2023-05-09T01:39:16.533Z,24.44
2023-05-09T01:40:16.596Z,24.42
2023-05-09T01:41:16.701Z,24.42
2023-05-09T01:42:16.803Z,24.42
2023-05-09T01:43:16.776Z,24.44
2023-05-09T01:44:16.952Z,24.44
2023-05-09T01:45:17.279Z,24.41
2023-05-09T01:46:16.942Z,24.47
2023-05-09T01:47:16.994Z,24.44
2023-05-09T01:48:17.038Z,24.42
2023-05-09T01:49:17.100Z,24.46
2023-05-09T01:50:17.169Z,24.44
2023-05-09T01:51:17.213Z,24.42
2023-05-09T01:52:17.271Z,24.46
2023-05-09T01:53:17.317Z,24.46
2023-05-09T01:54:17.379Z,24.42
2023-05-09T01:55:17.452Z,24.42
2023-05-09T01:56:17.488Z,24.46
2023-05-09T01:57:17.565Z,24.41
2023-05-09T01:58:17.685Z,24.41
2023-05-09T01:59:17.650Z,24.41
2023-05-09T02:00:17.705Z,24.42
2023-05-09T02:01:17.851Z,24.41
2023-05-09T02:02:17.877Z,24.44
2023-05-09T02:03:17.978Z,24.40
2023-05-09T02:04:17.973Z,24.42
2023-05-09T02:05:18.099Z,24.42
2023-05-09T02:06:18.067Z,24.42
2023-05-09T02:07:18.188Z,24.41
2023-05-09T02:08:18.213Z,24.41
2023-05-09T02:09:18.291Z,24.41
2023-05-09T02:10:18.377Z,24.42
2023-05-09T02:11:18.461Z,24.40
2023-05-09T02:12:18.495Z,24.38
2023-05-09T02:13:18.629Z,24.41
2023-05-09T02:14:18.727Z,24.40
2023-05-09T02:15:18.695Z,24.42
2023-05-09T02:16:20.605Z,24.40
2023-05-09T02:17:18.814Z,24.41
2023-05-09T02:18:18.883Z,24.41
2023-05-09T02:19:18.961Z,24.37
2023-05-09T02:20:18.982Z,24.40
2023-05-09T02:21:18.991Z,24.40
2023-05-09T02:22:19.038Z,24.38
2023-05-09T02:23:19.021Z,24.40
2023-05-09T02:24:19.022Z,24.38
2023-05-09T02:25:19.030Z,24.40
2023-05-09T02:26:19.039Z,24.40
2023-05-09T02:27:19.073Z,24.37
2023-05-09T02:28:19.069Z,24.38
2023-05-09T02:29:19.070Z,24.37
2023-05-09T02:30:19.323Z,24.38
2023-05-09T02:31:19.103Z,24.38
2023-05-09T02:32:19.101Z,24.40
2023-05-09T02:33:19.155Z,24.40
2023-05-09T02:34:19.215Z,24.38
2023-05-09T02:35:19.288Z,24.38
2023-05-09T02:36:19.372Z,24.38
2023-05-09T02:37:19.416Z,24.40
2023-05-09T02:38:19.476Z,24.38
2023-05-09T02:39:19.541Z,24.38
2023-05-09T02:40:19.598Z,24.40
2023-05-09T02:41:19.668Z,24.40
2023-05-09T02:42:19.721Z,24.38
2023-05-09T02:43:19.784Z,24.38
2023-05-09T02:44:19.850Z,24.38
2023-05-09T02:45:19.915Z,24.38
2023-05-09T02:46:20.132Z,24.38
2023-05-09T02:47:20.047Z,24.35
2023-05-09T02:48:20.112Z,24.35
2023-05-09T02:49:31.498Z,24.38
2023-05-09T02:50:20.180Z,24.37
2023-05-09T02:51:20.202Z,24.37
2023-05-09T02:52:20.218Z,24.35
2023-05-09T02:53:20.234Z,24.38
2023-05-09T02:54:20.295Z,24.38
2023-05-09T02:55:20.283Z,24.37
2023-05-09T02:56:20.288Z,24.37
2023-05-09T02:57:20.346Z,24.38
2023-05-09T02:58:20.328Z,24.35
2023-05-09T02:59:20.353Z,24.35
2023-05-09T03:00:20.409Z,24.37
2023-05-09T03:01:20.394Z,24.37
2023-05-09T03:02:20.628Z,24.34
2023-05-09T03:03:20.621Z,24.38
2023-05-09T03:04:20.574Z,24.35
2023-05-09T03:05:20.644Z,24.34
2023-05-09T03:06:20.714Z,24.35
2023-05-09T03:07:20.797Z,24.37
2023-05-09T03:08:20.856Z,24.38
2023-05-09T03:09:20.915Z,24.35
2023-05-09T03:10:21.012Z,24.37
2023-05-09T03:11:21.036Z,24.37
2023-05-09T03:12:21.101Z,24.37
2023-05-09T03:13:21.308Z,24.37
2023-05-09T03:14:21.169Z,24.37
2023-05-09T03:15:21.185Z,24.35
2023-05-09T03:16:21.253Z,24.34
2023-05-09T03:17:21.328Z,24.35
2023-05-09T03:18:21.322Z,24.34
2023-05-09T03:19:21.245Z,24.35
2023-05-09T03:20:21.252Z,24.37
2023-05-09T03:21:21.277Z,24.35
2023-05-09T03:22:21.327Z,24.34
2023-05-09T03:23:21.310Z,24.34
2023-05-09T03:24:21.322Z,24.35
2023-05-09T03:25:21.375Z,24.34
2023-05-09T03:26:21.398Z,24.34
2023-05-09T03:27:21.466Z,24.37
2023-05-09T03:28:21.525Z,24.35
2023-05-09T03:29:21.613Z,24.35
2023-05-09T03:30:21.648Z,24.34
2023-05-09T03:31:21.750Z,24.34
2023-05-09T03:32:21.780Z,24.35
2023-05-09T03:33:21.835Z,24.35
2023-05-09T03:34:21.983Z,24.32
2023-05-09T03:35:21.956Z,24.35
2023-05-09T03:36:22.032Z,24.35
2023-05-09T03:37:22.084Z,24.32
2023-05-09T03:38:22.164Z,24.34
2023-05-09T03:39:22.223Z,24.37
2023-05-09T03:40:22.287Z,24.34
2023-05-09T03:41:22.349Z,24.32
2023-05-09T03:42:22.414Z,24.32
2023-05-09T03:43:22.491Z,24.35
2023-05-09T03:44:22.575Z,24.32
2023-05-09T03:45:22.668Z,24.35
2023-05-09T03:46:22.716Z,24.32
2023-05-09T03:47:22.772Z,24.32
2023-05-09T03:48:22.836Z,24.35
2023-05-09T03:49:22.900Z,24.35
2023-05-09T03:50:23.053Z,24.34
2023-05-09T03:51:23.040Z,24.34
2023-05-09T03:52:23.111Z,24.31
2023-05-09T03:53:23.145Z,24.34
2023-05-09T03:54:23.214Z,24.32
2023-05-09T03:55:23.300Z,24.32
2023-05-09T03:56:23.353Z,24.32
2023-05-09T03:57:23.424Z,24.32
2023-05-09T03:58:23.487Z,24.31
2023-05-09T03:59:23.551Z,24.34
2023-05-09T04:00:23.621Z,24.32
2023-05-09T04:01:23.691Z,24.31
2023-05-09T04:02:23.884Z,24.31
2023-05-09T04:03:23.942Z,24.32
2023-05-09T04:04:23.914Z,24.30
2023-05-09T04:05:23.990Z,24.32
2023-05-09T04:06:24.125Z,24.31
2023-05-09T04:07:24.109Z,24.32
2023-05-09T04:08:24.164Z,24.32
2023-05-09T04:09:24.260Z,24.34
2023-05-09T04:10:24.301Z,24.32
2023-05-09T04:11:24.367Z,24.32
2023-05-09T04:12:24.435Z,24.31
2023-05-09T04:13:24.607Z,24.32
2023-05-09T04:14:24.563Z,24.31
2023-05-09T04:15:24.633Z,24.31
2023-05-09T04:16:24.791Z,24.32
2023-05-09T04:17:24.809Z,24.32
2023-05-09T04:18:24.831Z,24.32
2023-05-09T04:19:24.892Z,24.31
2023-05-09T04:20:24.963Z,24.30
2023-05-09T04:21:25.040Z,24.32
2023-05-09T04:22:25.200Z,24.34
2023-05-09T04:23:25.173Z,24.30
2023-05-09T04:24:25.233Z,24.31
2023-05-09T04:25:25.305Z,24.31
2023-05-09T04:26:25.385Z,24.31
2023-05-09T04:27:25.443Z,24.30
2023-05-09T04:28:25.530Z,24.31
2023-05-09T04:29:26.430Z,24.32
2023-05-09T04:30:25.633Z,24.30
2023-05-09T04:31:25.795Z,24.32
2023-05-09T04:32:25.898Z,24.30
2023-05-09T04:33:25.869Z,24.28
2023-05-09T04:34:26.926Z,24.30
2023-05-09T04:35:25.929Z,24.32
2023-05-09T04:36:25.948Z,24.30
2023-05-09T04:37:26.010Z,24.30
2023-05-09T04:38:26.096Z,24.30
2023-05-09T04:39:26.006Z,24.32
2023-05-09T04:40:26.887Z,24.32
2023-05-09T04:41:26.129Z,24.31
2023-05-09T04:42:26.142Z,24.31
2023-05-09T04:43:26.132Z,24.31
2023-05-09T04:44:26.214Z,24.32
2023-05-09T04:45:26.284Z,24.30
2023-05-09T04:46:26.334Z,24.31
2023-05-09T04:47:26.240Z,24.28
2023-05-09T04:48:26.227Z,24.28
2023-05-09T04:49:26.247Z,24.30
2023-05-09T04:50:26.221Z,24.30
2023-05-09T04:51:26.221Z,24.30
2023-05-09T04:52:26.312Z,24.30
2023-05-09T04:53:26.373Z,24.31
2023-05-09T04:54:26.572Z,24.30
2023-05-09T04:55:26.531Z,24.30
2023-05-09T04:56:26.635Z,24.30
2023-05-09T04:57:26.720Z,24.28
2023-05-09T04:58:26.792Z,24.31
2023-05-09T04:59:26.869Z,24.31
2023-05-09T05:00:26.947Z,24.30
2023-05-09T05:01:27.073Z,24.30
2023-05-09T05:02:27.119Z,24.31
2023-05-09T05:03:27.185Z,24.28
2023-05-09T05:04:27.320Z,24.30
2023-05-09T05:05:27.727Z,24.31
2023-05-09T05:06:27.931Z,24.32
2023-05-09T05:07:27.499Z,24.32
2023-05-09T05:08:27.541Z,24.32
2023-05-09T05:09:27.632Z,24.34
2023-05-09T05:10:27.680Z,24.27
2023-05-09T05:11:27.752Z,24.30
2023-05-09T05:12:27.822Z,24.28
2023-05-09T05:13:27.987Z,24.30
2023-05-09T05:14:27.981Z,24.31
2023-05-09T05:15:28.029Z,24.31
2023-05-09T05:16:28.114Z,24.28
2023-05-09T05:17:28.123Z,24.31
2023-05-09T05:18:28.132Z,24.32
2023-05-09T05:19:28.159Z,24.30
2023-05-09T05:20:28.161Z,24.31
2023-05-09T05:21:28.176Z,24.31
2023-05-09T05:22:28.403Z,24.30
2023-05-09T05:23:28.250Z,24.32
2023-05-09T05:24:28.232Z,24.32
2023-05-09T05:25:28.235Z,24.31
2023-05-09T05:26:28.339Z,24.34
2023-05-09T05:27:28.275Z,24.34
2023-05-09T05:28:28.278Z,24.37
2023-05-09T05:29:28.311Z,24.35
2023-05-09T05:30:28.415Z,24.35
2023-05-09T05:31:28.516Z,24.38
2023-05-09T05:32:28.572Z,24.35
2023-05-09T05:33:28.569Z,24.37
2023-05-09T05:34:28.636Z,24.31
2023-05-09T05:35:28.711Z,24.31
2023-05-09T05:36:28.790Z,24.34
2023-05-09T05:37:28.872Z,24.35
2023-05-09T05:38:28.933Z,24.40
2023-05-09T05:39:28.995Z,24.42
2023-05-09T05:40:29.050Z,24.48
2023-05-09T05:41:29.076Z,24.47
2023-05-09T05:42:29.216Z,24.50
2023-05-09T05:43:29.174Z,24.55
2023-05-09T05:44:29.219Z,24.55
2023-05-09T05:45:29.252Z,24.61
2023-05-09T05:46:29.956Z,24.64
2023-05-09T05:47:29.340Z,24.67
2023-05-09T05:48:29.377Z,24.62
2023-05-09T05:49:30.079Z,24.69
2023-05-09T05:50:29.477Z,24.72
2023-05-09T05:51:29.482Z,24.77
2023-05-09T05:52:29.524Z,24.79
2023-05-09T05:53:30.808Z,24.81
2023-05-09T05:54:29.674Z,24.83
2023-05-09T05:55:29.682Z,24.83
2023-05-09T05:56:29.691Z,24.89
2023-05-09T05:57:29.719Z,24.82
2023-05-09T05:58:29.810Z,24.86
2023-05-09T05:59:29.731Z,24.78
2023-05-09T06:00:29.769Z,24.78
2023-05-09T06:01:29.759Z,24.83
2023-05-09T06:02:29.828Z,24.82
2023-05-09T06:03:29.842Z,24.82
2023-05-09T06:04:29.775Z,24.86
2023-05-09T06:05:29.783Z,24.85
2023-05-09T06:06:29.830Z,24.88
2023-05-09T06:07:29.826Z,24.88
2023-05-09T06:08:29.821Z,24.89
2023-05-09T06:09:29.833Z,24.90
2023-05-09T06:10:29.849Z,24.92
2023-05-09T06:11:29.877Z,24.93
2023-05-09T06:12:29.891Z,24.95
2023-05-09T06:13:29.917Z,24.92
2023-05-09T06:14:30.025Z,24.96
2023-05-09T06:15:29.926Z,24.96
2023-05-09T06:16:30.019Z,24.96
2023-05-09T06:17:29.970Z,24.98
2023-05-09T06:18:29.949Z,24.99
2023-05-09T06:19:29.951Z,25.00
2023-05-09T06:20:29.956Z,25.05
2023-05-09T06:21:29.970Z,25.06
2023-05-09T06:22:30.030Z,25.08
2023-05-09T06:23:29.997Z,25.06
2023-05-09T06:24:35.759Z,25.08
2023-05-09T06:25:30.968Z,25.06
2023-05-09T06:26:30.032Z,25.08
2023-05-09T06:27:29.997Z,25.06
2023-05-09T06:28:30.030Z,25.08
2023-05-09T06:29:30.029Z,25.08
2023-05-09T06:30:30.133Z,25.13
2023-05-09T06:31:30.094Z,25.10
2023-05-09T06:32:30.115Z,25.08
2023-05-09T06:33:30.083Z,25.10
2023-05-09T06:34:30.088Z,25.09
2023-05-09T06:35:30.059Z,25.10
2023-05-09T06:36:30.110Z,25.15
2023-05-09T06:37:30.981Z,25.15
2023-05-09T06:38:30.126Z,25.13
2023-05-09T06:39:30.122Z,25.13
2023-05-09T06:40:31.084Z,25.12
2023-05-09T06:41:30.166Z,25.06
2023-05-09T06:42:30.195Z,25.10
2023-05-09T06:43:30.187Z,25.10
2023-05-09T06:44:30.203Z,25.16
2023-05-09T06:45:30.316Z,25.16
2023-05-09T06:46:30.451Z,25.19
2023-05-09T06:47:30.461Z,25.22
2023-05-09T06:48:30.493Z,25.26
2023-05-09T06:49:30.524Z,25.28
2023-05-09T06:50:32.789Z,25.33
2023-05-09T06:51:30.702Z,25.37
2023-05-09T06:52:30.800Z,25.36
2023-05-09T06:53:30.857Z,25.37
2023-05-09T06:54:31.061Z,25.40
2023-05-09T06:55:30.958Z,25.40
2023-05-09T06:56:31.029Z,25.41
2023-05-09T06:57:31.142Z,25.40
2023-05-09T06:58:31.213Z,25.33
2023-05-09T06:59:31.282Z,25.36
2023-05-09T07:00:31.309Z,25.41
2023-05-09T07:01:31.548Z,25.43
2023-05-09T07:02:31.672Z,25.44
2023-05-09T07:03:31.548Z,25.46
2023-05-09T07:04:31.596Z,25.44
2023-05-09T07:05:31.665Z,25.46
2023-05-09T07:06:31.729Z,25.47
2023-05-09T07:07:31.832Z,25.50
2023-05-09T07:08:31.824Z,25.51
2023-05-09T07:09:31.805Z,25.51
2023-05-09T07:10:31.820Z,25.56
2023-05-09T07:11:31.839Z,25.56
2023-05-09T07:12:31.814Z,25.59
2023-05-09T07:13:31.985Z,25.59
2023-05-09T07:14:31.841Z,25.60
2023-05-09T07:15:41.476Z,25.64
2023-05-09T07:16:34.075Z,25.64
2023-05-09T07:17:31.821Z,25.66
2023-05-09T07:18:31.899Z,25.67
2023-05-09T07:19:32.497Z,25.70
2023-05-09T07:20:31.821Z,25.69
2023-05-09T07:21:31.819Z,25.70
2023-05-09T07:22:33.059Z,25.76
2023-05-09T07:23:31.883Z,25.73
2023-05-09T07:24:31.826Z,25.76
2023-05-09T07:25:31.818Z,25.77
2023-05-09T07:26:31.882Z,25.74
2023-05-09T07:27:31.921Z,25.77
2023-05-09T07:28:31.978Z,25.80
2023-05-09T07:29:32.005Z,25.73
2023-05-09T07:30:32.072Z,25.80
2023-05-09T07:31:32.234Z,25.79
2023-05-09T07:32:32.203Z,25.80
2023-05-09T07:33:32.220Z,25.81
2023-05-09T07:34:32.327Z,25.84
2023-05-09T07:35:32.475Z,25.84
2023-05-09T07:36:34.788Z,25.84
2023-05-09T07:37:32.325Z,25.79
2023-05-09T07:38:32.285Z,25.85
2023-05-09T07:39:32.289Z,25.84
2023-05-09T07:40:32.324Z,25.91
2023-05-09T07:41:32.318Z,25.88
2023-05-09T07:42:32.305Z,25.94
2023-05-09T07:43:32.490Z,25.95
2023-05-09T07:44:32.416Z,25.98
2023-05-09T07:45:32.338Z,25.98
2023-05-09T07:46:32.364Z,25.98
2023-05-09T07:47:33.113Z,26.02
2023-05-09T07:48:32.313Z,26.04
2023-05-09T07:49:32.433Z,26.07
2023-05-09T07:50:32.462Z,26.07
2023-05-09T07:51:32.624Z,26.11
2023-05-09T07:52:32.321Z,26.05
2023-05-09T07:53:32.293Z,26.14
2023-05-09T07:54:32.300Z,26.20
2023-05-09T07:55:32.680Z,26.15
2023-05-09T07:56:32.411Z,26.22
2023-05-09T07:57:32.476Z,26.22
2023-05-09T07:58:32.358Z,26.25
2023-05-09T07:59:32.332Z,26.32
2023-05-09T08:00:32.328Z,26.35
2023-05-09T08:01:32.344Z,26.38
2023-05-09T08:02:32.552Z,26.41
2023-05-09T08:03:32.590Z,26.42
2023-05-09T08:04:32.441Z,26.42
2023-05-09T08:05:32.540Z,26.45
2023-05-09T08:06:32.398Z,26.43
2023-05-09T08:07:32.467Z,26.43
2023-05-09T08:08:32.519Z,26.45
2023-05-09T08:09:32.348Z,26.45
2023-05-09T08:10:32.387Z,26.43
2023-05-09T08:11:32.363Z,26.41
2023-05-09T08:12:32.380Z,26.43
2023-05-09T08:13:32.466Z,26.43
2023-05-09T08:14:32.543Z,26.41
2023-05-09T08:15:32.378Z,26.41
2023-05-09T08:16:32.609Z,26.39
2023-05-09T08:17:32.499Z,26.39
2023-05-09T08:18:32.383Z,26.36
2023-05-09T08:19:32.421Z,26.32
2023-05-09T08:20:32.395Z,26.35
2023-05-09T08:21:32.365Z,26.29
2023-05-09T08:22:32.596Z,26.31
2023-05-09T08:23:32.372Z,26.34
2023-05-09T08:24:32.376Z,26.34
2023-05-09T08:25:32.400Z,26.35
2023-05-09T08:26:32.362Z,26.35
2023-05-09T08:27:32.363Z,26.38
2023-05-09T08:28:32.418Z,26.35
2023-05-09T08:29:32.353Z,26.36
2023-05-09T08:30:32.350Z,26.38
2023-05-09T08:31:32.382Z,26.25
2023-05-09T08:32:32.359Z,26.24
2023-05-09T08:33:32.341Z,26.18
2023-05-09T08:34:32.347Z,26.14
2023-05-09T08:35:32.436Z,26.15
2023-05-09T08:36:32.314Z,25.92
2023-05-09T08:37:32.308Z,25.77
2023-05-09T08:38:32.445Z,25.54
2023-05-09T08:39:32.538Z,25.34
2023-05-09T08:40:32.350Z,25.18
2023-05-09T08:41:32.383Z,25.12
2023-05-09T08:42:32.401Z,25.08
2023-05-09T08:43:32.408Z,24.95
2023-05-09T08:44:32.403Z,24.98
2023-05-09T08:45:32.411Z,24.89
2023-05-09T08:46:32.491Z,25.00
2023-05-09T08:47:32.456Z,25.03
2023-05-09T08:48:35.247Z,25.06
2023-05-09T08:49:32.456Z,25.18
2023-05-09T08:50:32.470Z,25.19
2023-05-09T08:51:32.512Z,25.26
2023-05-09T08:52:32.476Z,25.26
2023-05-09T08:53:32.492Z,25.36
2023-05-09T08:54:32.603Z,25.40
2023-05-09T08:55:32.499Z,25.46
2023-05-09T08:56:32.501Z,25.46
2023-05-09T08:57:32.514Z,25.47
2023-05-09T08:58:32.536Z,25.47
2023-05-09T08:59:32.551Z,25.47
2023-05-09T09:00:32.621Z,25.50
2023-05-09T09:01:32.722Z,25.51
2023-05-09T09:02:32.792Z,25.51
2023-05-09T09:03:32.848Z,25.54
2023-05-09T09:04:32.948Z,25.59
2023-05-09T09:05:41.218Z,25.60
2023-05-09T09:06:33.984Z,25.66
2023-05-09T09:07:33.059Z,25.70
2023-05-09T09:08:32.974Z,25.70
2023-05-09T09:09:33.103Z,25.76
2023-05-09T09:10:33.098Z,25.79
2023-05-09T09:11:33.167Z,25.81
2023-05-09T09:12:33.012Z,25.84
2023-05-09T09:13:33.124Z,25.88
2023-05-09T09:14:33.021Z,25.94
2023-05-09T09:15:33.099Z,25.94
2023-05-09T09:16:33.079Z,25.97
2023-05-09T09:17:33.078Z,26.00
2023-05-09T09:18:33.060Z,26.04
2023-05-09T09:19:33.069Z,26.05
2023-05-09T09:20:33.062Z,26.11
2023-05-09T09:21:33.093Z,26.11
2023-05-09T09:22:33.106Z,26.12
2023-05-09T09:23:33.108Z,26.18
2023-05-09T09:24:33.072Z,26.18
2023-05-09T09:25:33.110Z,26.22
2023-05-09T09:26:33.164Z,26.25
2023-05-09T09:27:33.074Z,26.24
2023-05-09T09:28:33.091Z,26.28
2023-05-09T09:29:33.076Z,26.28
2023-05-09T09:30:33.044Z,26.31
2023-05-09T09:31:33.224Z,26.35
2023-05-09T09:32:33.100Z,26.35
2023-05-09T09:33:33.026Z,26.32
2023-05-09T09:34:33.157Z,26.17
2023-05-09T09:35:33.025Z,26.04
2023-05-09T09:36:33.030Z,25.94
2023-05-09T09:37:33.034Z,25.84
2023-05-09T09:38:33.040Z,25.66
2023-05-09T09:39:33.055Z,25.54
2023-05-09T09:40:33.061Z,25.43
2023-05-09T09:41:33.066Z,25.36
2023-05-09T09:42:33.165Z,25.37
2023-05-09T09:43:33.267Z,25.36
2023-05-09T09:44:33.097Z,25.41
2023-05-09T09:45:33.160Z,25.47
2023-05-09T09:46:33.251Z,25.54
2023-05-09T09:47:33.326Z,25.61
2023-05-09T09:48:33.358Z,25.64
2023-05-09T09:49:33.392Z,25.67
2023-05-09T09:50:33.428Z,25.71
2023-05-09T09:51:33.495Z,25.76
2023-05-09T09:52:33.498Z,25.77
2023-05-09T09:53:33.575Z,25.81
2023-05-09T09:54:33.589Z,25.83
2023-05-09T09:55:33.602Z,25.85
2023-05-09T09:56:33.632Z,25.88
2023-05-09T09:57:33.672Z,25.88
2023-05-09T09:58:33.678Z,25.91
2023-05-09T09:59:33.707Z,25.95
2023-05-09T10:00:33.704Z,25.97
2023-05-09T10:01:33.844Z,26.00
2023-05-09T10:02:33.794Z,26.02
2023-05-09T10:03:33.782Z,26.07
2023-05-09T10:04:33.802Z,26.05
2023-05-09T10:05:33.770Z,26.08
2023-05-09T10:06:33.793Z,26.07
2023-05-09T10:07:33.830Z,26.09
2023-05-09T10:08:33.827Z,26.15
2023-05-09T10:09:33.820Z,26.17
2023-05-09T10:10:33.847Z,26.25
2023-05-09T10:11:33.807Z,26.27
2023-05-09T10:12:33.796Z,26.32
2023-05-09T10:13:33.820Z,26.35
2023-05-09T10:14:35.320Z,26.36
2023-05-09T10:15:49.440Z,26.42
2023-05-09T10:16:43.528Z,26.43
2023-05-09T10:17:34.967Z,26.42
2023-05-09T10:18:34.074Z,26.51
2023-05-09T10:19:33.809Z,26.49
2023-05-09T10:20:33.844Z,26.49
2023-05-09T10:21:33.806Z,26.51
2023-05-09T10:22:33.812Z,26.52
2023-05-09T10:23:33.826Z,26.49
2023-05-09T10:24:33.812Z,26.43
2023-05-09T10:25:33.843Z,26.36
2023-05-09T10:26:33.822Z,26.27
2023-05-09T10:27:33.875Z,26.25
2023-05-09T10:28:33.846Z,26.22
2023-05-09T10:29:33.954Z,26.18
2023-05-09T10:30:34.301Z,26.15
2023-05-09T10:31:33.943Z,26.18
2023-05-09T10:32:33.941Z,26.18
2023-05-09T10:33:33.876Z,26.18
2023-05-09T10:34:33.892Z,26.18
2023-05-09T10:35:33.967Z,26.15
2023-05-09T10:36:33.901Z,26.14
2023-05-09T10:37:33.938Z,26.15
2023-05-09T10:38:34.555Z,26.21
2023-05-09T10:39:33.906Z,26.21
2023-05-09T10:40:33.904Z,26.27
2023-05-09T10:41:33.924Z,26.31
2023-05-09T10:42:33.956Z,26.36
2023-05-09T10:43:35.449Z,26.38
2023-05-09T10:44:33.999Z,26.41
2023-05-09T10:45:33.950Z,26.43
2023-05-09T10:46:34.125Z,26.43
2023-05-09T10:47:34.051Z,26.45
2023-05-09T10:48:33.987Z,26.45
2023-05-09T10:49:36.820Z,26.49
2023-05-09T10:50:33.957Z,26.52
2023-05-09T10:51:33.979Z,26.53
2023-05-09T10:52:33.960Z,26.52
2023-05-09T10:53:33.961Z,26.51
2023-05-09T10:54:33.958Z,26.48
2023-05-09T10:55:33.963Z,26.51
2023-05-09T10:56:33.956Z,26.49
2023-05-09T10:57:33.960Z,26.52
2023-05-09T10:58:34.072Z,26.55
2023-05-09T10:59:34.001Z,26.55
2023-05-09T11:00:33.988Z,26.58
2023-05-09T11:01:34.004Z,26.58
2023-05-09T11:02:34.135Z,26.56
2023-05-09T11:03:34.041Z,26.58
2023-05-09T11:04:33.996Z,26.58
2023-05-09T11:05:33.987Z,26.60
2023-05-09T11:06:33.994Z,26.58
2023-05-09T11:07:33.995Z,26.58
2023-05-09T11:08:33.991Z,26.59
2023-05-09T11:09:34.030Z,26.63
2023-05-09T11:10:34.025Z,26.60
2023-05-09T11:11:34.025Z,26.59
2023-05-09T11:12:34.036Z,26.60
2023-05-09T11:13:34.076Z,26.58
2023-05-09T11:14:34.041Z,26.59
2023-05-09T11:15:34.036Z,26.58
2023-05-09T11:16:34.039Z,26.60
2023-05-09T11:17:34.050Z,26.59
2023-05-09T11:18:34.148Z,26.58
2023-05-09T11:19:34.071Z,26.58
2023-05-09T11:20:34.060Z,26.59
2023-05-09T11:21:34.045Z,26.56
2023-05-09T11:22:34.050Z,26.58
2023-05-09T11:23:34.057Z,26.58
2023-05-09T11:24:34.044Z,26.55
2023-05-09T11:25:34.040Z,26.56
2023-05-09T11:26:34.105Z,26.51
2023-05-09T11:27:34.040Z,26.52
2023-05-09T11:28:34.071Z,26.53
2023-05-09T11:29:34.050Z,26.52
2023-05-09T11:30:34.152Z,26.49
2023-05-09T11:31:34.090Z,26.49
2023-05-09T11:32:34.117Z,26.49
2023-05-09T11:33:34.071Z,26.48
2023-05-09T11:34:34.177Z,26.46
2023-05-09T11:35:34.069Z,26.48
2023-05-09T11:36:34.145Z,26.45
2023-05-09T11:37:34.071Z,26.45
2023-05-09T11:38:34.055Z,26.43
2023-05-09T11:39:34.052Z,26.46
2023-05-09T11:40:34.055Z,26.46
2023-05-09T11:41:34.069Z,26.41
2023-05-09T11:42:34.074Z,26.45
2023-05-09T11:43:34.115Z,26.41
2023-05-09T11:44:34.045Z,26.41
2023-05-09T11:45:34.061Z,26.42
2023-05-09T11:46:34.206Z,26.42
2023-05-09T11:47:34.065Z,26.42
2023-05-09T11:48:34.051Z,26.41
2023-05-09T11:49:34.048Z,26.41
2023-05-09T11:50:34.135Z,26.38
2023-05-09T11:51:34.047Z,26.41
2023-05-09T11:52:34.055Z,26.41
2023-05-09T11:53:34.057Z,26.38
2023-05-09T11:54:34.058Z,26.39
2023-05-09T11:55:34.061Z,26.42
2023-05-09T11:56:34.066Z,26.39
2023-05-09T11:57:34.096Z,26.41
2023-05-09T11:58:34.127Z,26.39
2023-05-09T11:59:34.093Z,26.41
2023-05-09T12:00:34.097Z,26.43
2023-05-09T12:01:34.099Z,26.43
2023-05-09T12:02:34.218Z,26.43
2023-05-09T12:03:34.149Z,26.42
2023-05-09T12:04:34.181Z,26.45
2023-05-09T12:05:34.145Z,26.43
2023-05-09T12:06:34.158Z,26.42
2023-05-09T12:07:34.146Z,26.43
2023-05-09T12:08:34.144Z,26.41
2023-05-09T12:09:34.194Z,26.41
2023-05-09T12:10:34.180Z,26.38
2023-05-09T12:11:34.180Z,26.38
2023-05-09T12:12:34.184Z,26.42
2023-05-09T12:13:34.196Z,26.38
2023-05-09T12:14:34.226Z,26.36
2023-05-09T12:15:34.224Z,26.38
2023-05-09T12:16:34.333Z,26.38
2023-05-09T12:17:34.307Z,26.38
2023-05-09T12:18:34.255Z,26.38
2023-05-09T12:19:34.274Z,26.35
2023-05-09T12:20:34.284Z,26.36
2023-05-09T12:21:34.303Z,26.35
2023-05-09T12:22:34.415Z,26.36
2023-05-09T12:23:34.339Z,26.36
2023-05-09T12:24:34.338Z,26.32
2023-05-09T12:25:34.407Z,26.34
2023-05-09T12:26:34.371Z,26.36
2023-05-09T12:27:34.375Z,26.36
2023-05-09T12:28:34.379Z,26.35
2023-05-09T12:29:34.403Z,26.35
2023-05-09T12:30:34.438Z,26.32
2023-05-09T12:31:34.480Z,26.31
2023-05-09T12:32:34.532Z,26.31
2023-05-09T12:33:34.491Z,26.34
2023-05-09T12:34:34.496Z,26.38
2023-05-09T12:35:34.502Z,26.35
2023-05-09T12:36:34.491Z,26.38
2023-05-09T12:37:34.521Z,26.39
2023-05-09T12:38:34.631Z,26.39
2023-05-09T12:39:34.504Z,26.38
2023-05-09T12:40:34.517Z,26.36
2023-05-09T12:41:41.484Z,26.36
2023-05-09T12:42:35.505Z,26.39
2023-05-09T12:43:34.508Z,26.42
2023-05-09T12:44:34.508Z,26.41
2023-05-09T12:45:34.517Z,26.43
2023-05-09T12:46:35.852Z,26.43
2023-05-09T12:47:34.543Z,26.42
2023-05-09T12:48:34.517Z,26.39
2023-05-09T12:49:34.518Z,26.41
2023-05-09T12:50:34.541Z,26.41
2023-05-09T12:51:34.577Z,26.38
2023-05-09T12:52:34.546Z,26.39